Map

Track Data

SID SEASON NUMBER BASIN SUBBASIN NAME ISO_TIME NATURE LAT LON WMO_WIND WMO_PRES WMO_AGENCY TRACK_TYPE DIST2LAND LANDFALL IFLAG USA_AGENCY USA_ATCF_ID USA_LAT USA_LON USA_RECORD USA_STATUS USA_WIND USA_PRES USA_SSHS USA_R34_NE USA_R34_SE USA_R34_SW USA_R34_NW USA_R50_NE USA_R50_SE USA_R50_SW USA_R50_NW USA_R64_NE USA_R64_SE USA_R64_SW USA_R64_NW USA_POCI USA_ROCI USA_RMW USA_EYE TOKYO_LAT TOKYO_LON TOKYO_GRADE TOKYO_WIND TOKYO_PRES TOKYO_R50_DIR TOKYO_R50_LONG TOKYO_R50_SHORT TOKYO_R30_DIR TOKYO_R30_LONG TOKYO_R30_SHORT TOKYO_LAND CMA_LAT CMA_LON CMA_CAT CMA_WIND CMA_PRES HKO_LAT HKO_LON HKO_CAT HKO_WIND HKO_PRES NEWDELHI_LAT NEWDELHI_LON NEWDELHI_GRADE NEWDELHI_WIND NEWDELHI_PRES NEWDELHI_CI NEWDELHI_DP NEWDELHI_POCI REUNION_LAT REUNION_LON REUNION_TYPE REUNION_WIND REUNION_PRES REUNION_TNUM REUNION_CI REUNION_RMW REUNION_R34_NE REUNION_R34_SE REUNION_R34_SW REUNION_R34_NW REUNION_R50_NE REUNION_R50_SE REUNION_R50_SW REUNION_R50_NW REUNION_R64_NE REUNION_R64_SE REUNION_R64_SW REUNION_R64_NW BOM_LAT BOM_LON BOM_TYPE BOM_WIND BOM_PRES BOM_TNUM BOM_CI BOM_RMW BOM_R34_NE BOM_R34_SE BOM_R34_SW BOM_R34_NW BOM_R50_NE BOM_R50_SE BOM_R50_SW BOM_R50_NW BOM_R64_NE BOM_R64_SE BOM_R64_SW BOM_R64_NW BOM_ROCI BOM_POCI BOM_EYE BOM_POS_METHOD BOM_PRES_METHOD NADI_LAT NADI_LON NADI_CAT NADI_WIND NADI_PRES WELLINGTON_LAT WELLINGTON_LON WELLINGTON_WIND WELLINGTON_PRES DS824_LAT DS824_LON DS824_STAGE DS824_WIND DS824_PRES TD9636_LAT TD9636_LON TD9636_STAGE TD9636_WIND TD9636_PRES TD9635_LAT TD9635_LON TD9635_WIND TD9635_PRES TD9635_ROCI NEUMANN_LAT NEUMANN_LON NEUMANN_CLASS NEUMANN_WIND NEUMANN_PRES MLC_LAT MLC_LON MLC_CLASS MLC_WIND MLC_PRES USA_GUST BOM_GUST BOM_GUST_PER REUNION_GUST REUNION_GUST_PER USA_SEAHGT USA_SEARAD_NE USA_SEARAD_SE USA_SEARAD_SW USA_SEARAD_NW STORM_SPEED STORM_DIR
1953050S17159 1953 12 SP EA NOT_NAMED 1953-02-19 05:00:00 NR -17.4000 158.700 1002 bom main 645 639 ______O_______ -1 -17.4000 158.700 1002 10 214
1953050S17159 1953 12 SP EA NOT_NAMED 1953-02-19 06:00:00 TS -17.5392 158.602 main 648 642 ______P__O____ -1 -17.5587 158.603 -17.5000 158.600 TC 25 1002 11 211
1953050S17159 1953 12 SP EA NOT_NAMED 1953-02-19 09:00:00 TS -18.0093 158.310 main 651 647 ______P__P____ -1 -18.0321 158.312 -17.9751 158.306 TC 11 211
1953050S17159 1953 12 SP EA NOT_NAMED 1953-02-19 12:00:00 TS -18.4732 158.018 main 660 657 ______P__P____ -1 -18.4959 158.022 -18.4429 158.013 TC 11 211
1953050S17159 1953 12 SP EA NOT_NAMED 1953-02-19 15:00:00 TS -18.9196 157.729 main 678 675 ______P__P____ -1 -18.9429 157.735 -18.8962 157.723 TC 10 212
1953050S17159 1953 12 SP EA NOT_NAMED 1953-02-19 18:00:00 TS -19.3472 157.446 main 699 695 ______P__P____ -1 -19.3661 157.453 -19.3282 157.440 TC 10 213
1953050S17159 1953 12 SP EA NOT_NAMED 1953-02-19 21:00:00 TS -19.7452 157.171 main 697 657 ______P__P____ -1 -19.7587 157.178 -19.7318 157.164 TC 9 214
1953050S17159 1953 12 SP EA NOT_NAMED 1953-02-19 23:00:00 TS -19.9918 156.983 1002 bom main 657 642 ______O__PO___ -1 -20.0000 157.000 1002 -19.9816 156.987 TC -20.0000 156.900 7 9 218
1953050S17159 1953 12 SP EA NOT_NAMED 1953-02-20 00:00:00 TS -20.1035 156.876 main 642 597 O_____P__OP___ jtwc_sh SH131953 -20.1000 156.800 -1 -20.1138 156.913 -20.1000 156.900 TC 25 1002 -20.0934 156.832 7 8 218
1953050S17159 1953 12 SP EA NOT_NAMED 1953-02-20 03:00:00 TS -20.4127 156.636 main 597 557 P_____P__PP___ SH131953 -20.4100 156.603 -1 -20.4296 156.659 -20.4283 156.649 TC -20.3728 156.630 7 7 216
1953050S17159 1953 12 SP EA NOT_NAMED 1953-02-20 06:00:00 TS -20.6961 156.414 main 557 527 O_____P__PP___ jtwc_sh SH131953 -20.7000 156.400 -1 -20.7120 156.419 -20.7211 156.414 TC -20.6495 156.429 7 7 217
1953050S17159 1953 12 SP EA NOT_NAMED 1953-02-20 09:00:00 TS -20.9579 156.201 main 518 503 P_____P__PP___ SH131953 -20.9575 156.192 -1 -20.9676 156.194 -20.9849 156.196 TC -20.9218 156.230 7 6 217
1953050S17159 1953 12 SP EA NOT_NAMED 1953-02-20 11:00:00 TS -21.1226 156.067 main 503 488 P_____P__PO___ SH131953 -21.1193 156.061 -1 -21.1264 156.054 -21.1479 156.060 TC -21.1000 156.100 7 6 217
1953050S17159 1953 12 SP EA NOT_NAMED 1953-02-20 12:00:00 TS -21.2034 156.004 main 488 457 O_____P__PP___ jtwc_sh SH131953 -21.2000 156.000 -1 -21.2030 155.987 -21.2263 155.995 TC -21.1879 156.036 7 6 214
1953050S17159 1953 12 SP EA NOT_NAMED 1953-02-20 15:00:00 TS -21.4447 155.832 main 457 424 P_____P__PP___ SH131953 -21.4499 155.850 -1 -21.4249 155.798 -21.4519 155.814 TC -21.4466 155.848 7 6 213
1953050S17159 1953 12 SP EA NOT_NAMED 1953-02-20 18:00:00 TS -21.6812 155.670 main 424 394 O_____P__PP___ jtwc_sh SH131953 -21.7000 155.700 -1 -21.6397 155.630 -21.6684 155.654 TC -21.6979 155.669 7 6 213
1953050S17159 1953 12 SP EA NOT_NAMED 1953-02-20 21:00:00 TS -21.9186 155.497 main 394 370 P_____P__PP___ SH131953 -21.9575 155.493 -1 -21.8541 155.484 -21.8822 155.515 TC -21.9417 155.503 7 6 214
1953050S17159 1953 12 SP EA NOT_NAMED 1953-02-20 23:00:00 TS -22.0743 155.390 1002 bom main 370 364 P_____O__PO___ SH131953 -22.1224 155.358 -1 -22.0000 155.400 1002 4 -22.0266 155.436 TC -22.1000 155.400 7 6 213
1953050S17159 1953 12 SP EA NOT_NAMED 1953-02-21 00:00:00 TS -22.1518 155.339 main 354 330 O_____P__OP___ jtwc_sh SH131953 -22.2000 155.300 -1 -22.0831 155.348 -22.1000 155.400 TC 25 1002 -22.1759 155.347 7 5 209
1953050S17159 1953 12 SP EA NOT_NAMED 1953-02-21 03:00:00 TS -22.3713 155.215 main 330 306 P_____P__PP___ SH131953 -22.4000 155.185 -1 -22.3326 155.202 -22.3270 155.309 TC -22.3970 155.196 7 5 205
1953050S17159 1953 12 SP EA NOT_NAMED 1953-02-21 06:00:00 TS -22.5922 155.116 main 306 282 O_____P__PP___ jtwc_sh SH131953 -22.6000 155.100 -1 -22.5822 155.079 -22.5631 155.239 TC -22.6157 155.063 7 5 201
1953050S17159 1953 12 SP EA NOT_NAMED 1953-02-21 09:00:00 TS -22.8330 155.022 main 282 265 P_____P__PP___ SH131953 -22.8425 154.993 -1 -22.8318 154.981 -22.8072 155.187 TC -22.8412 154.955 7 5 198
1953050S17159 1953 12 SP EA NOT_NAMED 1953-02-21 11:00:00 TS -23.0000 154.970 main 265 256 P_____P__PO___ SH131953 -23.0140 154.928 -1 -22.9984 154.932 -22.9736 155.162 TC -23.0000 154.900 7 5 194
1953050S17159 1953 12 SP EA NOT_NAMED 1953-02-21 12:00:00 TS -23.0846 154.946 main 250 233 O_____P__PP___ jtwc_sh SH131953 -23.1000 154.900 -1 -23.0817 154.913 -23.0578 155.151 TC -23.0837 154.867 7 5 192
1953050S17159 1953 12 SP EA NOT_NAMED 1953-02-21 15:00:00 TS -23.3352 154.893 main 233 210 P_____P__PP___ SH131953 -23.3425 154.835 -1 -23.3318 154.881 -23.3138 155.127 TC -23.3453 154.787 7 5 188
1953050S17159 1953 12 SP EA NOT_NAMED 1953-02-21 18:00:00 TS -23.5952 154.869 main 210 190 O_____P__PP___ jtwc_sh SH131953 -23.6000 154.800 -1 -23.5821 154.888 -23.5737 155.113 TC -23.6202 154.744 7 5 183
1953050S17159 1953 12 SP EA NOT_NAMED 1953-02-21 21:00:00 TS -23.8738 154.852 main 190 179 P_____P__PP___ SH131953 -23.8925 154.763 -1 -23.8328 154.939 -23.8362 155.105 TC -23.9056 154.755 7 6 0
1953050S17159 1953 12 SP EA NOT_NAMED 1953-02-21 23:00:00 TS -24.0668 154.867 1002 bom main 179 175 P_____O__PO___ SH131953 -24.0973 154.775 -1 -24.0000 155.000 1002 -24.0120 155.102 TC -24.1000 154.800 7 6 0
1953050S17159 1953 12 SP EA NOT_NAMED 1953-02-22 00:00:00 TS -24.1674 154.881 main 175 170 O_____P__OP___ jtwc_sh SH131953 -24.2000 154.800 -1 -24.0836 155.039 -24.1000 155.100 TC 25 1002 -24.2028 154.829 7 6 161
1953050S17159 1953 12 SP EA NOT_NAMED 1953-02-22 03:00:00 TS -24.4634 155.019 main 170 170 P_____P___P___ SH131953 -24.5000 154.962 -1 -24.3347 155.188 TC -24.5191 154.963 7 7 151
1953050S17159 1953 12 SP EA NOT_NAMED 1953-02-22 06:00:00 TS -24.7547 155.235 main 182 182 O_____P___P___ jtwc_sh SH131953 -24.8000 155.200 -1 -24.5857 155.382 TC -24.8329 155.159 7 7 145
1953050S17159 1953 12 SP EA NOT_NAMED 1953-02-22 09:00:00 TS -25.0480 155.473 main 211 211 P_____P___P___ SH131953 -25.1150 155.435 -1 -24.8365 155.612 TC -25.1257 155.409 7 7 142
1953050S17159 1953 12 SP EA NOT_NAMED 1953-02-22 11:00:00 TS -25.2316 155.650 main 232 232 P_____P___O___ SH131953 -25.3114 155.608 -1 -25.0035 155.784 TC -25.3000 155.600 7 7 136
1953050S17159 1953 12 SP EA NOT_NAMED 1953-02-22 12:00:00 TS -25.3045 155.750 main 243 243 O_____P___P___ jtwc_sh SH131953 -25.4000 155.700 -1 -25.0869 155.874 TC -25.3790 155.702 7 7 127
1953050S17159 1953 12 SP EA NOT_NAMED 1953-02-22 15:00:00 TS -25.5143 156.061 main 277 277 P_____P___P___ SH131953 -25.6201 155.992 -1 -25.3369 156.161 TC -25.5858 156.030 7 7 125
1953050S17159 1953 12 SP EA NOT_NAMED 1953-02-22 18:00:00 TS -25.7039 156.393 main 311 311 O_____P___P___ jtwc_sh SH131953 -25.8000 156.300 -1 -25.5862 156.467 TC -25.7575 156.382 7 7 119
1953050S17159 1953 12 SP EA NOT_NAMED 1953-02-22 21:00:00 NR -25.8707 156.767 main 355 355 ______P___P___ SH131953 -1 -25.8347 156.785 TC -25.9067 156.750 7 7 119
1953050S17159 1953 12 SP EA NOT_NAMED 1953-02-22 23:00:00 NR -26.0000 157.000 1004 bom main 377 ______O___O___ SH131953 -1 -26.0000 157.000 1004 TC -26.0000 157.000 7 7 122

Digital Typhoon Data and Search

About IBTrACS Database

This database is a web-friendly format of International Best Track Archive for Climate Stewardship (IBTrACS), a global best track data archive curated by NOAA dating back to 1842.

Updated: 2021-12-06